createdAt,value
2022-12-25T00:00:46.070Z,12.5
2022-12-25T00:02:00.203Z,12.3
2022-12-25T00:03:14.461Z,12.6
2022-12-25T00:04:28.526Z,12.1
2022-12-25T00:05:42.580Z,12.6
2022-12-25T00:07:04.988Z,12.9
2022-12-25T00:09:24.525Z,12.6
2022-12-25T00:10:34.765Z,13.4
2022-12-25T00:11:44.908Z,13.1
2022-12-25T00:12:55.182Z,13.4
2022-12-25T00:14:05.470Z,14.1
2022-12-25T00:15:15.724Z,13.5
2022-12-25T00:16:25.961Z,13.3
2022-12-25T00:17:36.211Z,13.4
2022-12-25T00:18:46.384Z,12.7
2022-12-25T00:19:56.743Z,13.1
2022-12-25T00:21:06.904Z,12.5
2022-12-25T00:22:17.186Z,14.9
2022-12-25T00:23:27.423Z,12.2
2022-12-25T00:24:37.684Z,14.4
2022-12-25T00:25:47.856Z,12.1
2022-12-25T00:26:58.122Z,17.7
2022-12-25T00:28:08.419Z,15.4
2022-12-25T00:29:18.648Z,16.3
2022-12-25T00:30:28.906Z,14.7
2022-12-25T00:31:39.164Z,16.6
2022-12-25T00:32:49.348Z,15.6
2022-12-25T00:33:59.641Z,22.2
2022-12-25T00:35:09.851Z,19.3
2022-12-25T00:36:20.086Z,18
2022-12-25T00:37:30.321Z,22.6
2022-12-25T00:38:40.762Z,13.4
2022-12-25T00:39:51.241Z,14.6
2022-12-25T00:41:01.622Z,14.8
2022-12-25T00:42:12.130Z,14.2
2022-12-25T00:43:22.524Z,15.3
2022-12-25T00:44:32.943Z,15.8
2022-12-25T00:45:43.343Z,16.1
2022-12-25T00:46:53.834Z,13.8
2022-12-25T00:48:04.257Z,13.6
2022-12-25T00:49:14.648Z,12.5
2022-12-25T00:50:25.069Z,14.1
2022-12-25T00:51:35.553Z,12.6
2022-12-25T00:52:45.941Z,13.4
2022-12-25T00:55:25.724Z,14.1
2022-12-25T00:56:36.511Z,13.9
2022-12-25T00:57:50.651Z,12.5
2022-12-25T00:59:04.702Z,11.3
2022-12-25T01:00:18.827Z,12.1
2022-12-25T01:01:32.975Z,13.3
2022-12-25T01:02:47.081Z,12.8
2022-12-25T01:04:01.294Z,12.8
2022-12-25T01:05:15.375Z,12.9
2022-12-25T01:06:29.494Z,13.6
2022-12-25T01:07:43.602Z,13.7
2022-12-25T01:08:54.491Z,14.6
2022-12-25T01:10:05.269Z,13.9
2022-12-25T01:13:48.343Z,14.9
2022-12-25T01:16:15.945Z,14.7
2022-12-25T01:17:38.189Z,14.3
2022-12-25T01:18:52.303Z,12.8
2022-12-25T01:20:06.545Z,13.3
2022-12-25T01:21:17.292Z,14
2022-12-25T01:22:28.061Z,14.3
2022-12-25T01:23:42.159Z,13.6
2022-12-25T01:24:56.288Z,13.6
2022-12-25T01:26:09.824Z,14
2022-12-25T01:27:19.962Z,14.2
2022-12-25T01:28:30.158Z,13.6
2022-12-25T01:29:40.253Z,14.4
2022-12-25T01:30:50.446Z,15.5
2022-12-25T01:32:00.657Z,16.3
2022-12-25T01:33:10.765Z,15.5
2022-12-25T01:34:20.931Z,14.9
2022-12-25T01:35:31.076Z,16.1
2022-12-25T01:36:41.233Z,14.6
2022-12-25T01:37:51.397Z,14.5
2022-12-25T01:39:01.584Z,15.8
2022-12-25T01:40:11.746Z,16.6
2022-12-25T01:41:21.911Z,17
2022-12-25T01:42:32.073Z,15.4
2022-12-25T01:43:42.212Z,16.2
2022-12-25T01:44:52.445Z,18.5
2022-12-25T01:46:02.598Z,17.2
2022-12-25T01:47:12.761Z,17.2
2022-12-25T01:48:23.070Z,18.7
2022-12-25T01:49:33.084Z,17.3
2022-12-25T01:50:43.198Z,19.1
2022-12-25T01:51:53.378Z,16.2
2022-12-25T01:53:03.595Z,18.7
2022-12-25T01:54:13.761Z,16.6
2022-12-25T01:55:23.952Z,20.7
2022-12-25T01:56:34.228Z,18.7
2022-12-25T01:57:44.419Z,18.6
2022-12-25T01:58:54.689Z,19.8
2022-12-25T02:00:04.929Z,20.7
2022-12-25T02:01:15.230Z,21
2022-12-25T02:02:25.471Z,20
2022-12-25T02:03:35.654Z,21.2
2022-12-25T02:04:45.892Z,20.3
2022-12-25T02:05:56.190Z,19.7
2022-12-25T02:07:06.453Z,19
2022-12-25T02:08:16.699Z,18
2022-12-25T02:09:26.922Z,19.3
2022-12-25T02:11:47.737Z,20.4
2022-12-25T02:12:58.252Z,20.6
2022-12-25T02:14:08.606Z,21
2022-12-25T02:15:19.052Z,22.1
2022-12-25T02:16:29.474Z,22.5
2022-12-25T02:17:39.891Z,21.2
2022-12-25T02:18:50.331Z,22.1
2022-12-25T02:20:00.832Z,23
2022-12-25T02:21:11.281Z,23.2
2022-12-25T02:22:21.641Z,22.4
2022-12-25T02:23:32.128Z,22.1
2022-12-25T02:24:42.481Z,23.2
2022-12-25T02:27:21.262Z,21.7
2022-12-25T02:28:35.432Z,23
2022-12-25T02:29:49.463Z,23.3
2022-12-25T02:31:00.342Z,23.5
2022-12-25T02:32:11.083Z,22.4
2022-12-25T02:33:25.275Z,22.9
2022-12-25T02:34:39.360Z,23
2022-12-25T02:35:53.467Z,23
2022-12-25T02:37:07.049Z,22.8
2022-12-25T02:38:17.186Z,23.5
2022-12-25T02:39:27.263Z,23.7
2022-12-25T02:40:37.531Z,23.2
2022-12-25T02:41:47.594Z,22.8
2022-12-25T02:42:57.833Z,22.7
2022-12-25T02:44:08.000Z,22.5
2022-12-25T02:46:28.322Z,23.2
2022-12-25T02:47:38.434Z,23.1
2022-12-25T02:48:48.556Z,22.8
2022-12-25T02:49:58.754Z,23.2
2022-12-25T02:51:08.919Z,25.4
2022-12-25T02:52:19.087Z,25.7
2022-12-25T02:53:29.250Z,24.3
2022-12-25T02:54:39.426Z,26.8
2022-12-25T02:55:49.548Z,26
2022-12-25T02:56:59.777Z,27.8
2022-12-25T02:58:09.931Z,28.8
2022-12-25T02:59:20.047Z,30.2
2022-12-25T03:00:30.271Z,32.1
2022-12-25T03:01:40.365Z,30.9
2022-12-25T03:02:50.590Z,31.7
2022-12-25T03:04:00.712Z,34
2022-12-25T03:05:10.871Z,32.9
2022-12-25T03:06:21.110Z,31.4
2022-12-25T03:07:31.350Z,33.6
2022-12-25T03:08:41.585Z,33.6
2022-12-25T03:09:51.850Z,32.9
2022-12-25T03:11:02.193Z,35.3
2022-12-25T03:12:12.431Z,32.9
2022-12-25T03:13:22.590Z,34
2022-12-25T03:14:32.831Z,33.3
2022-12-25T03:15:43.058Z,31.6
2022-12-25T03:16:53.327Z,33.3
2022-12-25T03:18:03.609Z,36.2
2022-12-25T03:19:13.827Z,34
2022-12-25T03:20:24.065Z,30.6
2022-12-25T03:22:05.099Z,37.4
2022-12-25T03:23:15.587Z,35.7
2022-12-25T03:24:26.016Z,37.3
2022-12-25T03:25:36.392Z,33.5
2022-12-25T03:26:46.801Z,35.4
2022-12-25T03:27:57.307Z,36.8
2022-12-25T03:29:07.739Z,38.3
2022-12-25T03:30:18.127Z,34.5
2022-12-25T03:31:28.587Z,36.9
2022-12-25T03:32:38.989Z,35.6
2022-12-25T03:33:49.393Z,36.2
2022-12-25T03:34:59.890Z,36.7
2022-12-25T03:36:10.323Z,33.2
2022-12-25T03:37:21.122Z,33.8
2022-12-25T03:38:35.284Z,36.4
2022-12-25T03:39:49.322Z,36.8
2022-12-25T03:41:03.526Z,35.1
2022-12-25T03:42:17.579Z,33.8
2022-12-25T03:43:31.781Z,33.2
2022-12-25T03:44:45.820Z,32.6
2022-12-25T03:46:00.040Z,31.6
2022-12-25T03:47:14.120Z,35.8
2022-12-25T03:48:29.588Z,36.4
2022-12-25T03:49:42.332Z,36.5
2022-12-25T03:50:57.831Z,38.8
2022-12-25T03:52:11.976Z,39
2022-12-25T03:55:55.016Z,36.8
2022-12-25T03:58:22.246Z,38.8
2022-12-25T03:59:31.016Z,40.2
2022-12-25T04:00:41.187Z,39.1
2022-12-25T04:01:52.768Z,35.9
2022-12-25T04:03:01.661Z,36.2
2022-12-25T04:04:11.953Z,35.4
2022-12-25T04:05:22.816Z,34.8
2022-12-25T04:06:32.429Z,34.2
2022-12-25T04:07:42.660Z,35.2
2022-12-25T04:08:52.989Z,35.5
2022-12-25T04:10:03.162Z,35.5
2022-12-25T04:11:13.543Z,38.7
2022-12-25T04:12:23.702Z,35.1
2022-12-25T04:13:33.967Z,32.2
2022-12-25T04:14:44.134Z,35.7
2022-12-25T04:15:54.380Z,36.1
2022-12-25T04:17:04.684Z,30.4
2022-12-25T04:18:14.904Z,32.9
2022-12-25T04:19:25.155Z,31.1
2022-12-25T04:20:35.383Z,31.4
2022-12-25T04:21:45.604Z,34.1
2022-12-25T04:22:55.909Z,32.9
2022-12-25T04:24:06.118Z,32.6
2022-12-25T04:25:16.419Z,33.3
2022-12-25T04:26:26.665Z,31.8
2022-12-25T04:27:37.028Z,33.1
2022-12-25T04:28:47.463Z,33.7
2022-12-25T04:29:57.894Z,32.7
2022-12-25T04:31:08.336Z,32.5
2022-12-25T04:32:18.841Z,32
2022-12-25T04:33:29.235Z,31.7
2022-12-25T04:34:39.608Z,34.8
2022-12-25T04:35:50.053Z,32.4
2022-12-25T04:37:00.492Z,30.9
2022-12-25T04:38:10.920Z,30.1
2022-12-25T04:39:21.332Z,31.7
2022-12-25T04:40:31.784Z,31.2
2022-12-25T04:41:42.194Z,31
2022-12-25T04:44:21.941Z,30.4
2022-12-25T04:45:32.736Z,27.4
2022-12-25T04:46:46.842Z,29
2022-12-25T04:48:01.077Z,28.3
2022-12-25T04:49:15.121Z,32.2
2022-12-25T04:50:29.302Z,28.7
2022-12-25T04:51:43.370Z,27.4
2022-12-25T04:52:57.513Z,27.4
2022-12-25T04:54:11.634Z,27.1
2022-12-25T04:55:25.806Z,25.2
2022-12-25T04:56:39.868Z,27.1
2022-12-25T04:57:50.753Z,26
2022-12-25T04:59:00.505Z,24.6
2022-12-25T05:00:10.696Z,24.6
2022-12-25T05:01:20.828Z,24.8
2022-12-25T05:02:31.026Z,24.8
2022-12-25T05:03:41.135Z,26.6
2022-12-25T05:04:51.389Z,25.2
2022-12-25T05:06:01.521Z,25.3
2022-12-25T05:07:11.621Z,25.5
2022-12-25T05:08:21.800Z,27.5
2022-12-25T05:09:31.971Z,27.2
2022-12-25T05:10:42.113Z,28
2022-12-25T05:11:52.275Z,27.8
2022-12-25T05:13:02.512Z,29.6
2022-12-25T05:14:12.599Z,30.1
2022-12-25T05:15:22.867Z,29.8
2022-12-25T05:17:43.089Z,27.8
2022-12-25T05:18:53.269Z,29.2
2022-12-25T05:20:03.488Z,32.6
2022-12-25T05:21:13.646Z,33.8
2022-12-25T05:22:23.808Z,32.7
2022-12-25T05:23:33.972Z,33.1
2022-12-25T05:24:44.072Z,33.4
2022-12-25T05:25:54.277Z,33
2022-12-25T05:27:04.437Z,36.2
2022-12-25T05:28:14.661Z,34.1
2022-12-25T05:29:24.915Z,38.1
2022-12-25T05:30:35.214Z,32.6
2022-12-25T05:31:45.378Z,34.7
2022-12-25T05:32:55.697Z,34.2
2022-12-25T05:34:05.878Z,33.6
2022-12-25T05:35:16.208Z,34.8
2022-12-25T05:36:26.386Z,33
2022-12-25T05:37:36.746Z,33.7
2022-12-25T05:38:46.860Z,32.8
2022-12-25T05:39:57.183Z,32.8
2022-12-25T05:41:07.414Z,32.4
2022-12-25T05:42:17.677Z,35.7
2022-12-25T05:43:28.047Z,33.5
2022-12-25T05:44:38.534Z,33.3
2022-12-25T05:45:48.895Z,34.7
2022-12-25T05:46:59.337Z,33.6
2022-12-25T05:48:09.756Z,32.2
2022-12-25T05:49:20.217Z,33.9
2022-12-25T05:50:30.717Z,34.4
2022-12-25T05:51:41.047Z,35.8
2022-12-25T05:52:51.557Z,35.1
2022-12-25T05:54:01.978Z,35.3
2022-12-25T05:55:12.490Z,34.2
2022-12-25T05:56:22.838Z,33.9
2022-12-25T05:57:33.274Z,34.2
2022-12-25T06:00:11.472Z,31.7
2022-12-25T06:01:25.654Z,32.9
2022-12-25T06:02:39.134Z,31.8
2022-12-25T06:03:49.224Z,32.9
2022-12-25T06:04:59.394Z,31.8
2022-12-25T06:06:09.575Z,32.4
2022-12-25T06:07:19.796Z,33.3
2022-12-25T06:08:29.903Z,31.2
2022-12-25T06:09:40.038Z,31.6
2022-12-25T06:10:50.237Z,31.4
2022-12-25T06:12:00.424Z,31.5
2022-12-25T06:13:10.539Z,30.2
2022-12-25T06:14:20.706Z,30.5
2022-12-25T06:15:30.920Z,29.7
2022-12-25T06:16:41.021Z,28.7
2022-12-25T06:17:51.187Z,29.5
2022-12-25T06:19:01.372Z,28.4
2022-12-25T06:20:11.531Z,27.1
2022-12-25T06:21:21.687Z,28.1
2022-12-25T06:22:31.851Z,28.1
2022-12-25T06:23:42.000Z,27.3
2022-12-25T06:24:52.219Z,26.7
2022-12-25T06:26:02.412Z,27
2022-12-25T06:27:12.512Z,26.7
2022-12-25T06:28:22.659Z,26.2
2022-12-25T06:29:32.899Z,26.6
2022-12-25T06:30:42.979Z,25.9
2022-12-25T06:31:53.260Z,25.3
2022-12-25T06:33:03.519Z,25.7
2022-12-25T06:34:13.735Z,26
2022-12-25T06:35:23.977Z,24.2
2022-12-25T06:36:34.221Z,25
2022-12-25T06:37:44.457Z,24.6
2022-12-25T06:38:54.760Z,24.3
2022-12-25T06:40:04.957Z,24.2
2022-12-25T06:41:15.260Z,24.1
2022-12-25T06:42:25.477Z,25.2
2022-12-25T06:43:35.737Z,24.7
2022-12-25T06:44:45.926Z,25.8
2022-12-25T06:45:56.229Z,24.2
2022-12-25T06:47:06.709Z,24.6
2022-12-25T06:48:17.107Z,24.4
2022-12-25T06:49:27.472Z,24.8
2022-12-25T06:50:37.995Z,24.1
2022-12-25T06:51:48.327Z,24.4
2022-12-25T06:52:58.782Z,25.1
2022-12-25T06:54:09.197Z,24.3
2022-12-25T06:55:19.640Z,25.5
2022-12-25T06:56:30.110Z,25.7
2022-12-25T06:57:40.486Z,30.2
2022-12-25T06:58:50.999Z,28
2022-12-25T07:00:01.352Z,26.4
2022-12-25T07:01:11.836Z,24.1
2022-12-25T07:03:49.810Z,24.1
2022-12-25T07:05:03.962Z,24.3
2022-12-25T07:06:18.106Z,23.7
2022-12-25T07:07:28.894Z,23.9
2022-12-25T07:08:39.676Z,23.3
2022-12-25T07:09:53.876Z,24.2
2022-12-25T07:11:07.955Z,23.6
2022-12-25T07:12:22.084Z,23.9
2022-12-25T07:13:36.245Z,24.8
2022-12-25T07:14:50.338Z,24.4
2022-12-25T07:16:04.475Z,24.7
2022-12-25T07:17:17.957Z,23.2
2022-12-25T07:18:28.166Z,22.1
2022-12-25T07:19:38.267Z,22.9
2022-12-25T07:20:48.416Z,23.5
2022-12-25T07:21:58.587Z,23.3
2022-12-25T07:23:08.808Z,23.3
2022-12-25T07:24:18.927Z,22.8
2022-12-25T07:25:29.191Z,22.9
2022-12-25T07:26:39.304Z,22.7
2022-12-25T07:27:49.400Z,22.6
2022-12-25T07:28:59.694Z,23.2
2022-12-25T07:30:09.735Z,22.5
2022-12-25T07:31:19.987Z,23.2
2022-12-25T07:32:30.060Z,22.4
2022-12-25T07:33:40.211Z,23.2
2022-12-25T07:34:50.370Z,23.3
2022-12-25T07:36:00.594Z,22.1
2022-12-25T07:37:10.757Z,22.5
2022-12-25T07:38:20.960Z,21.8
2022-12-25T07:39:31.023Z,22.7
2022-12-25T07:40:41.189Z,22.7
2022-12-25T07:41:51.358Z,20.9
2022-12-25T07:43:01.592Z,21.5
2022-12-25T07:44:11.743Z,21.2
2022-12-25T07:45:21.913Z,21.7
2022-12-25T07:46:32.152Z,20.7
2022-12-25T07:47:42.338Z,21.5
2022-12-25T07:48:52.610Z,21.7
2022-12-25T07:50:02.855Z,20.9
2022-12-25T07:51:13.093Z,22.6
2022-12-25T07:52:23.330Z,21.7
2022-12-25T07:53:33.702Z,20.3
2022-12-25T07:54:43.807Z,21.2
2022-12-25T07:55:54.129Z,21
2022-12-25T07:57:04.308Z,20.9
2022-12-25T07:58:14.607Z,21
2022-12-25T07:59:24.833Z,20.6
2022-12-25T08:00:35.061Z,21.3
2022-12-25T08:02:16.130Z,19.6
2022-12-25T08:03:26.608Z,20.5
2022-12-25T08:04:36.962Z,20.5
2022-12-25T08:05:47.364Z,20.8
2022-12-25T08:06:57.804Z,21.1
2022-12-25T08:08:08.302Z,20.5
2022-12-25T08:09:18.696Z,20.2
2022-12-25T08:10:29.160Z,19.7
2022-12-25T08:11:39.522Z,19.7
2022-12-25T08:12:49.953Z,20.9
2022-12-25T08:14:00.439Z,20.7
2022-12-25T08:15:10.848Z,20.9
2022-12-25T08:16:21.317Z,20.6
2022-12-25T08:17:32.118Z,20.2
2022-12-25T08:18:46.184Z,19.9
2022-12-25T08:20:00.321Z,20.5
2022-12-25T08:21:14.540Z,20.1
2022-12-25T08:22:28.625Z,21.2
2022-12-25T08:23:42.695Z,20.2
2022-12-25T08:24:56.839Z,20.3
2022-12-25T08:26:10.951Z,20.5
2022-12-25T08:27:25.153Z,20.6
2022-12-25T08:28:39.226Z,21.4
2022-12-25T08:29:53.370Z,19.8
2022-12-25T08:31:07.467Z,20.9
2022-12-25T08:32:20.956Z,19.2
2022-12-25T08:33:31.150Z,20.1
2022-12-25T08:34:41.285Z,20.2
2022-12-25T08:35:51.466Z,20.4
2022-12-25T08:37:01.623Z,18.3
2022-12-25T08:38:11.779Z,19.9
2022-12-25T08:39:21.948Z,19.7
2022-12-25T08:40:32.103Z,20.1
2022-12-25T08:41:42.261Z,19.9
2022-12-25T08:42:52.434Z,20
2022-12-25T08:44:02.593Z,20.7
2022-12-25T08:45:12.831Z,20.3
2022-12-25T08:46:22.931Z,20.4
2022-12-25T08:47:33.201Z,20.2
2022-12-25T08:48:43.234Z,19.9
2022-12-25T08:49:53.458Z,20.1
2022-12-25T08:51:03.582Z,19.4
2022-12-25T08:52:13.743Z,19.4
2022-12-25T08:53:23.898Z,20.4
2022-12-25T08:54:34.053Z,20.4
2022-12-25T08:55:44.217Z,18.7
2022-12-25T08:56:54.403Z,18.7
2022-12-25T08:58:04.565Z,19.1
2022-12-25T08:59:14.724Z,19
2022-12-25T09:00:24.885Z,18.5
2022-12-25T09:01:35.148Z,19.3
2022-12-25T09:02:45.356Z,19
2022-12-25T09:03:55.672Z,18.6
2022-12-25T09:05:05.862Z,19
2022-12-25T09:06:16.106Z,18
2022-12-25T09:07:26.405Z,18.9
2022-12-25T09:08:36.608Z,18.2
2022-12-25T09:09:46.831Z,18.2
2022-12-25T09:10:57.202Z,18.9
2022-12-25T09:12:07.350Z,17.4
2022-12-25T09:13:17.636Z,18.4
2022-12-25T09:14:27.893Z,17.6
2022-12-25T09:15:38.113Z,18.1
2022-12-25T09:16:48.490Z,18
2022-12-25T09:17:58.990Z,17.5
2022-12-25T09:19:09.373Z,19
2022-12-25T09:20:19.883Z,17.8
2022-12-25T09:21:30.275Z,17.4
2022-12-25T09:22:40.659Z,17.4
2022-12-25T09:23:51.083Z,17.7
2022-12-25T09:25:01.616Z,17.9
2022-12-25T09:26:12.019Z,16.4
2022-12-25T09:27:22.399Z,17.7
2022-12-25T09:28:32.806Z,15.9
2022-12-25T09:29:43.237Z,16.1
2022-12-25T09:30:53.693Z,16
2022-12-25T09:33:32.176Z,16.7
2022-12-25T09:34:46.223Z,16.5
2022-12-25T09:36:00.370Z,16.4
2022-12-25T09:37:10.166Z,17.3
2022-12-25T09:38:20.332Z,15.4
2022-12-25T09:39:30.534Z,15.8
2022-12-25T09:40:40.649Z,17.6
2022-12-25T09:41:50.810Z,15.9
2022-12-25T09:43:01.029Z,15.7
2022-12-25T09:44:11.156Z,16.4
2022-12-25T09:45:21.308Z,16.4
2022-12-25T09:46:31.470Z,16.2
2022-12-25T09:47:41.625Z,16
2022-12-25T09:48:51.798Z,16.6
2022-12-25T09:50:01.957Z,15.9
2022-12-25T09:51:12.130Z,15.9
2022-12-25T09:52:22.297Z,16.1
2022-12-25T09:53:32.455Z,15.7
2022-12-25T09:54:42.606Z,15.1
2022-12-25T09:55:52.767Z,15.8
2022-12-25T09:57:02.959Z,15.5
2022-12-25T09:58:13.190Z,14.4
2022-12-25T09:59:23.331Z,15
2022-12-25T10:00:33.488Z,15.6
2022-12-25T10:01:43.582Z,14.4
2022-12-25T10:02:53.843Z,14.9
2022-12-25T10:04:03.931Z,15.3
2022-12-25T10:05:14.169Z,14.2
2022-12-25T10:06:24.355Z,14.7
2022-12-25T10:07:34.590Z,15.4
2022-12-25T10:08:44.812Z,14.9
2022-12-25T10:09:55.112Z,14.5
2022-12-25T10:11:05.367Z,15
2022-12-25T10:12:15.564Z,14.4
2022-12-25T10:13:25.805Z,14.4
2022-12-25T10:15:46.286Z,14.2
2022-12-25T10:16:56.565Z,14.6
2022-12-25T10:18:06.862Z,15
2022-12-25T10:19:17.103Z,14.6
2022-12-25T10:20:27.363Z,14.4
2022-12-25T10:21:37.774Z,14.5
2022-12-25T10:22:48.133Z,15
2022-12-25T10:23:58.636Z,14.4
2022-12-25T10:25:09.062Z,14.2
2022-12-25T10:26:19.439Z,14.1
2022-12-25T10:27:29.887Z,15
2022-12-25T10:28:40.293Z,14.8
2022-12-25T10:29:50.724Z,15.8
2022-12-25T10:31:01.161Z,14.8
2022-12-25T10:32:11.604Z,14.5
2022-12-25T10:33:22.046Z,15.2
2022-12-25T10:34:32.000Z,14.7
2022-12-25T10:35:42.881Z,14.1
2022-12-25T10:38:22.113Z,15.7
2022-12-25T10:39:36.193Z,14.3
2022-12-25T10:40:50.303Z,15.2
2022-12-25T10:42:01.116Z,15.5
2022-12-25T10:43:11.985Z,15.1
2022-12-25T10:44:26.142Z,15.5
2022-12-25T10:45:40.185Z,15.3
2022-12-25T10:46:54.475Z,16.3
2022-12-25T10:48:08.497Z,16.4
2022-12-25T10:49:22.594Z,15.4
2022-12-25T10:50:36.690Z,16.3
2022-12-25T10:51:50.807Z,16.2
2022-12-25T10:53:05.019Z,16.7
2022-12-25T10:54:27.421Z,16.8
2022-12-25T10:56:48.082Z,16.7
2022-12-25T10:59:15.056Z,16.8
2022-12-25T11:00:25.288Z,17.1
2022-12-25T11:01:35.545Z,17.6
2022-12-25T11:02:45.763Z,18.1
2022-12-25T11:03:56.038Z,18
2022-12-25T11:05:06.437Z,18.3
2022-12-25T11:06:16.650Z,17.8
2022-12-25T11:07:26.835Z,18.3
2022-12-25T11:08:37.067Z,17.5
2022-12-25T11:09:47.241Z,17.5
2022-12-25T11:10:57.490Z,18
2022-12-25T11:12:07.834Z,17.1
2022-12-25T11:13:18.057Z,17
2022-12-25T11:14:28.242Z,17.4
2022-12-25T11:15:38.537Z,18.3
2022-12-25T11:16:48.718Z,18.1
2022-12-25T11:17:58.962Z,17.6
2022-12-25T11:19:09.214Z,16.7
2022-12-25T11:20:19.516Z,15.6
2022-12-25T11:21:29.773Z,16.7
2022-12-25T11:22:39.967Z,16.6
2022-12-25T11:23:50.186Z,17.3
2022-12-25T11:25:00.458Z,17
2022-12-25T11:26:10.757Z,16.3
2022-12-25T11:27:20.949Z,16.9
2022-12-25T11:28:31.436Z,18.5
2022-12-25T11:29:41.798Z,17.2
2022-12-25T11:30:52.303Z,16.8
2022-12-25T11:32:02.722Z,17
2022-12-25T11:33:13.100Z,16.9
2022-12-25T11:34:23.588Z,17.4
2022-12-25T11:35:34.030Z,16.3
2022-12-25T11:36:44.376Z,17.2
2022-12-25T11:37:54.882Z,18
2022-12-25T11:39:05.304Z,17.9
2022-12-25T11:40:15.685Z,15.8
2022-12-25T11:41:26.204Z,17.3
2022-12-25T11:42:36.601Z,16.5
2022-12-25T11:45:14.803Z,16.8
2022-12-25T11:46:28.883Z,17.1
2022-12-25T11:47:42.990Z,15.7
2022-12-25T11:48:53.824Z,16.1
2022-12-25T11:50:04.654Z,16.3
2022-12-25T11:51:18.735Z,16.9
2022-12-25T11:52:32.930Z,17
2022-12-25T11:53:46.977Z,17.8
2022-12-25T11:55:01.128Z,16.4
2022-12-25T11:56:15.250Z,16.2
2022-12-25T11:57:29.387Z,16.8
2022-12-25T11:58:43.493Z,16
2022-12-25T11:59:57.655Z,15.7
2022-12-25T12:01:11.240Z,15.3
2022-12-25T12:02:21.295Z,16.2
2022-12-25T12:03:31.454Z,15.5
2022-12-25T12:04:41.598Z,15.5
2022-12-25T12:05:51.779Z,16.6
2022-12-25T12:07:01.941Z,17.1
2022-12-25T12:08:12.171Z,17
2022-12-25T12:09:22.330Z,16.8
2022-12-25T12:10:32.511Z,16
2022-12-25T12:11:42.572Z,16.4
2022-12-25T12:12:52.803Z,18
2022-12-25T12:14:02.972Z,17.4
2022-12-25T12:15:13.156Z,17.1
2022-12-25T12:16:23.230Z,17.8
2022-12-25T12:17:33.518Z,18.1
2022-12-25T12:18:43.548Z,18.3
2022-12-25T12:19:53.736Z,17.9
2022-12-25T12:21:03.958Z,18.4
2022-12-25T12:22:14.061Z,18.5
2022-12-25T12:23:24.289Z,17.9
2022-12-25T12:24:34.481Z,21
2022-12-25T12:25:44.532Z,23.3
2022-12-25T12:26:54.759Z,24.5
2022-12-25T12:28:04.877Z,25.9
2022-12-25T12:29:15.113Z,30.6
2022-12-25T12:30:25.282Z,34.5
2022-12-25T12:31:35.605Z,25.1
2022-12-25T12:32:45.759Z,25
2022-12-25T12:33:56.081Z,23.4
2022-12-25T12:35:06.262Z,25.3
2022-12-25T12:36:16.520Z,31.5
2022-12-25T12:37:26.761Z,21.7
2022-12-25T12:38:37.017Z,31.3
2022-12-25T12:39:47.231Z,40.2
2022-12-25T12:40:57.553Z,27.6
2022-12-25T12:42:07.848Z,37.4
2022-12-25T12:43:18.079Z,33.8
2022-12-25T12:44:28.317Z,21.2
2022-12-25T12:46:09.359Z,28.4
2022-12-25T12:47:19.697Z,28.4
2022-12-25T12:48:30.140Z,33.8
2022-12-25T12:49:40.628Z,28.7
2022-12-25T12:50:50.982Z,21.9
2022-12-25T12:52:01.466Z,29
2022-12-25T12:53:11.867Z,23.2
2022-12-25T12:54:22.344Z,24.4
2022-12-25T12:55:32.702Z,25.8
2022-12-25T12:56:43.136Z,22.2
2022-12-25T12:57:53.622Z,28.1
2022-12-25T12:59:04.101Z,30.5
2022-12-25T13:00:14.441Z,45.1
2022-12-25T13:01:25.241Z,41.4
2022-12-25T13:02:39.455Z,49.8
2022-12-25T13:03:53.507Z,61.1
2022-12-25T13:05:07.622Z,50.4
2022-12-25T13:06:21.764Z,22.7
2022-12-25T13:07:35.942Z,26.4
2022-12-25T13:08:50.009Z,32.1
2022-12-25T13:10:04.167Z,29.1
2022-12-25T13:11:18.285Z,19.5
2022-12-25T13:12:32.404Z,23.9
2022-12-25T13:13:46.515Z,24.3
2022-12-25T13:15:00.653Z,16.8
2022-12-25T13:16:14.793Z,17.6
2022-12-25T13:19:57.923Z,18.5
2022-12-25T13:22:26.204Z,16.9
2022-12-25T13:24:53.177Z,17.4
2022-12-25T13:26:03.374Z,16.1
2022-12-25T13:27:13.656Z,18.3
2022-12-25T13:28:23.889Z,16.1
2022-12-25T13:29:34.116Z,17.2
2022-12-25T13:30:44.341Z,17.2
2022-12-25T13:31:54.670Z,17.8
2022-12-25T13:33:04.860Z,17.4
2022-12-25T13:34:15.180Z,17.1
2022-12-25T13:35:25.352Z,16.9
2022-12-25T13:36:35.594Z,16.9
2022-12-25T13:37:45.819Z,17.2
2022-12-25T13:38:56.099Z,15.3
2022-12-25T13:40:06.364Z,16.5
2022-12-25T13:41:16.581Z,16.2
2022-12-25T13:42:26.822Z,16.1
2022-12-25T13:43:37.059Z,16.2
2022-12-25T13:44:47.296Z,16.7
2022-12-25T13:45:57.617Z,16.9
2022-12-25T13:47:07.879Z,17.5
2022-12-25T13:48:18.058Z,17.8
2022-12-25T13:49:28.298Z,17
2022-12-25T13:50:38.540Z,17.5
2022-12-25T13:51:48.764Z,17.5
2022-12-25T13:52:59.098Z,17
2022-12-25T13:54:09.520Z,16.4
2022-12-25T13:55:19.900Z,17.3
2022-12-25T13:56:30.311Z,16
2022-12-25T13:57:40.816Z,16.7
2022-12-25T13:58:51.174Z,17.7
2022-12-25T14:00:01.623Z,17.2
2022-12-25T14:01:12.092Z,16.5
2022-12-25T14:02:22.466Z,17.5
2022-12-25T14:03:32.908Z,17.9
2022-12-25T14:04:43.322Z,17.9
2022-12-25T14:05:53.775Z,19
2022-12-25T14:07:04.208Z,18.8
2022-12-25T14:08:14.625Z,18.3
2022-12-25T14:10:54.340Z,18.4
2022-12-25T14:12:08.480Z,20.6
2022-12-25T14:13:22.583Z,21.7
2022-12-25T14:14:33.345Z,20.5
2022-12-25T14:15:44.130Z,18.5
2022-12-25T14:16:58.284Z,19.4
2022-12-25T14:18:12.465Z,36.1
2022-12-25T14:19:26.572Z,22.3
2022-12-25T14:20:40.645Z,18.6
2022-12-25T14:21:54.783Z,23.5
2022-12-25T14:23:08.958Z,18.7
2022-12-25T14:24:23.145Z,18.7
2022-12-25T14:25:37.224Z,19.4
2022-12-25T14:26:59.578Z,17.7
2022-12-25T14:29:19.016Z,17.5
2022-12-25T14:30:29.266Z,17
2022-12-25T14:31:39.556Z,19.2
2022-12-25T14:32:49.730Z,18
2022-12-25T14:34:00.046Z,17.6
2022-12-25T14:35:10.288Z,17.9
2022-12-25T14:36:20.488Z,18.4
2022-12-25T14:37:30.717Z,18.5
2022-12-25T14:38:40.978Z,19.2
2022-12-25T14:39:51.207Z,18.3
2022-12-25T14:41:01.533Z,18.2
2022-12-25T14:42:11.773Z,18.8
2022-12-25T14:43:22.037Z,17.7
2022-12-25T14:44:32.278Z,16.9
2022-12-25T14:45:42.436Z,18.5
2022-12-25T14:46:52.746Z,18.8
2022-12-25T14:48:02.986Z,18.4
2022-12-25T14:49:13.189Z,18
2022-12-25T14:50:23.534Z,18.4
2022-12-25T14:51:33.681Z,17.7
2022-12-25T14:52:43.905Z,18.2
2022-12-25T14:53:54.237Z,17.3
2022-12-25T14:55:04.465Z,17.8
2022-12-25T14:56:14.657Z,17.9
2022-12-25T14:57:24.916Z,17.7
2022-12-25T14:58:35.347Z,17.2
2022-12-25T14:59:45.757Z,17
2022-12-25T15:00:56.264Z,18
2022-12-25T15:02:06.614Z,18.4
2022-12-25T15:03:17.115Z,18.8
2022-12-25T15:04:27.491Z,19.2
2022-12-25T15:05:37.925Z,18.7
2022-12-25T15:06:48.342Z,18
2022-12-25T15:07:58.870Z,20
2022-12-25T15:09:09.270Z,18.6
2022-12-25T15:10:19.655Z,18.3
2022-12-25T15:11:30.094Z,18.7
2022-12-25T15:12:40.510Z,17.5
2022-12-25T15:15:20.231Z,17.9
2022-12-25T15:16:31.051Z,21.8
2022-12-25T15:17:45.164Z,19.2
2022-12-25T15:18:59.293Z,18.8
2022-12-25T15:20:13.514Z,17.5
2022-12-25T15:21:27.552Z,15.7
2022-12-25T15:22:41.091Z,16.6
2022-12-25T15:23:51.186Z,16.4
2022-12-25T15:25:01.367Z,15.7
2022-12-25T15:26:11.604Z,16.7
2022-12-25T15:27:21.743Z,16.9
2022-12-25T15:28:31.907Z,19.9
2022-12-25T15:29:42.007Z,17.7
2022-12-25T15:32:02.386Z,16.4
2022-12-25T15:33:12.568Z,18.1
2022-12-25T15:34:22.728Z,20.3
2022-12-25T15:35:32.827Z,18.3
2022-12-25T15:36:42.979Z,18.6
2022-12-25T15:37:53.141Z,19.7
2022-12-25T15:39:03.309Z,17.9
2022-12-25T15:40:13.496Z,18.1
2022-12-25T15:41:23.666Z,19.1
2022-12-25T15:42:33.808Z,18.9
2022-12-25T15:43:43.960Z,18.4
2022-12-25T15:44:54.194Z,18.9
2022-12-25T15:46:04.348Z,20.2
2022-12-25T15:47:14.634Z,21.6
2022-12-25T15:48:24.886Z,18.5
2022-12-25T15:49:34.840Z,19.5
2022-12-25T15:50:44.936Z,19.9
2022-12-25T15:51:55.244Z,18
2022-12-25T15:53:05.444Z,17.9
2022-12-25T15:54:15.741Z,19.5
2022-12-25T15:55:25.983Z,17
2022-12-25T15:56:36.222Z,19.6
2022-12-25T15:57:46.415Z,22
2022-12-25T15:58:56.682Z,22.1
2022-12-25T16:00:06.923Z,21.3
2022-12-25T16:01:17.164Z,22.5
2022-12-25T16:02:27.402Z,22.8
2022-12-25T16:03:37.723Z,19.8
2022-12-25T16:04:47.882Z,18.7
2022-12-25T16:05:58.199Z,19
2022-12-25T16:07:08.590Z,18.1
2022-12-25T16:08:19.093Z,18.9
2022-12-25T16:09:29.500Z,17.9
2022-12-25T16:10:39.882Z,19.2
2022-12-25T16:11:50.297Z,18
2022-12-25T16:13:00.804Z,19.6
2022-12-25T16:14:11.261Z,20.7
2022-12-25T16:15:21.663Z,21.7
2022-12-25T16:16:32.040Z,21.3
2022-12-25T16:17:42.446Z,21.4
2022-12-25T16:18:52.936Z,20.5
2022-12-25T16:20:03.322Z,20.5
2022-12-25T16:21:13.749Z,21.5
2022-12-25T16:23:52.180Z,19.6
2022-12-25T16:25:06.382Z,18.9
2022-12-25T16:26:20.400Z,18.5
2022-12-25T16:27:31.241Z,18.7
2022-12-25T16:28:41.977Z,18
2022-12-25T16:29:56.179Z,19
2022-12-25T16:31:10.313Z,16.4